Monday, April 24, 2017, 4:55 PM EDT

KLKU, Louisa, Louisa County Airport/freeman Field

Location: Louisa, VA, United States Lat: 38.01
Local Time: 4:55 PM EDT (20:55 GMT) Lon: -77.97
Time Zone: US/Eastern Elev: 492 ft

Show me the last for .
Show Decoded

2017-04-24 16:35 METAR KLKU 242035Z AUTO 04008G14KT 4SM RA OVC007 13/12 A2995 RMK AO2 =
2017-04-24 16:15 METAR KLKU 242015Z AUTO 03009G16KT 7SM OVC007 13/12 A2995 RMK AO2 =
2017-04-24 15:55 METAR KLKU 241955Z AUTO 02008KT 7SM DZ BKN007 OVC010 13/12 A2995 RMK AO2 =
2017-04-24 15:35 METAR KLKU 241935Z AUTO 03010G16KT 5SM -DZ OVC009 13/12 A2996 RMK AO2 =
2017-04-24 15:15 METAR KLKU 241915Z AUTO 03009G15KT 10SM DZ BKN009 OVC013 13/12 A2997 RMK AO2 =
2017-04-24 14:55 METAR KLKU 241855Z AUTO 05013KT 10SM DZ BKN007 OVC013 13/12 A2997 RMK AO2 P0002
                 =
2017-04-24 14:35 METAR KLKU 241835Z AUTO 04006KT 10SM DZ BKN005 OVC011 13/13 A2998 RMK AO2 P0001
                 =
2017-04-24 14:15 METAR KLKU 241815Z AUTO 04006KT 7SM DZ OVC005 13/12 A2998 RMK AO2 =
2017-04-24 13:55 METAR KLKU 241755Z AUTO 05005KT 2 1/2SM RA BKN007 OVC010 13/12 A2999 RMK AO2
                 P0006 =
2017-04-24 13:35 METAR KLKU 241735Z AUTO 05006KT 2 1/2SM +RA OVC007 13/12 A2999 RMK AO2 VIS 1
                 3/4V5 P0004 =
2017-04-24 13:15 METAR KLKU 241715Z AUTO 03007KT 000V070 4SM BR BKN007 OVC013 13/12 A2999 RMK AO2
                 =
2017-04-24 12:55 METAR KLKU 241655Z AUTO 03008G14KT 5SM BR BKN007 OVC015 13/12 A2999 RMK AO2
                 P0001 =
2017-04-24 12:35 METAR KLKU 241635Z AUTO 03007KT 5SM -RA BKN009 OVC015 13/12 A3000 RMK AO2 P0001
                 =
2017-04-24 12:15 METAR KLKU 241615Z AUTO 03006KT 7SM SCT007 OVC014 12/12 A3000 RMK AO2 P0001 =
2017-04-24 11:55 METAR KLKU 241555Z AUTO 03009KT 5SM DZ BKN007 OVC014 12/11 A3001 RMK AO2 P0006 =
2017-04-24 11:35 METAR KLKU 241535Z AUTO 02007KT 5SM DZ BKN007 BKN015 OVC019 12/11 A3001 RMK AO2
                 P0006 =
2017-04-24 11:15 METAR KLKU 241515Z AUTO 01008KT 4SM -RA BKN009 OVC015 12/11 A3001 RMK AO2 P0005
                 =
2017-04-24 10:55 METAR KLKU 241455Z AUTO 04006KT 7SM RA BKN009 OVC013 12/11 A3002 RMK AO2 P0012 =
2017-04-24 10:35 METAR KLKU 241435Z AUTO 02008KT 000V060 4SM +RA SCT009 OVC016 12/11 A3002 RMK
                 AO2 P0007 =
2017-04-24 10:15 METAR KLKU 241415Z AUTO 03006KT 10SM DZ SCT009 OVC018 12/11 A3002 RMK AO2 P0001
                 =
2017-04-24 09:55 METAR KLKU 241355Z AUTO 02009KT 7SM RA BKN007 BKN011 OVC021 11/11 A3002 RMK AO2
                 P0004 =
2017-04-24 09:35 METAR KLKU 241335Z AUTO 02007KT 4SM DZ BKN007 BKN012 OVC023 11/10 A3002 RMK AO2
                 P0001 =
2017-04-24 09:15 METAR KLKU 241315Z AUTO 03006KT 7SM SCT009 BKN017 OVC023 11/10 A3002 RMK AO2 =
2017-04-24 08:55 METAR KLKU 241255Z AUTO 03007G14KT 10SM BKN009 BKN015 OVC023 11/10 A3002 RMK AO2
                 =
2017-04-24 08:35 METAR KLKU 241235Z AUTO 02008G14KT 10SM BKN009 BKN018 OVC024 11/10 A3003 RMK AO2
                 =
2017-04-24 08:15 METAR KLKU 241215Z AUTO 03009KT 5SM BR BKN007 BKN010 OVC022 11/10 A3003 RMK AO2
                 =
2017-04-24 07:55 METAR KLKU 241155Z AUTO 03007KT 7SM BKN007 BKN013 OVC023 11/09 A3002 RMK AO2
                 P0002 =
2017-04-24 07:35 METAR KLKU 241135Z AUTO 04010G16KT 7SM SCT007 BKN013 OVC023 11/09 A3002 RMK AO2
                 P0002 =
2017-04-24 07:15 METAR KLKU 241115Z AUTO 03009G15KT 4SM RA SCT007 BKN011 OVC021 11/10 A3003 RMK
                 AO2 P0002 =
2017-04-24 06:55 METAR KLKU 241055Z AUTO 04009G17KT 2 1/2SM RA SCT007 BKN011 OVC022 11/10 A3003
                 RMK AO2 P0001 =
2017-04-24 06:35 METAR KLKU 241035Z AUTO 03008KT 5SM BR BKN007 BKN011 OVC017 11/10 A3002 RMK AO2
                 P0001 =
2017-04-24 06:15 METAR KLKU 241015Z AUTO 03007KT 000V070 7SM -DZ SCT007 BKN014 OVC026 11/11 A3001
                 RMK AO2 P0001 =
2017-04-24 05:55 METAR KLKU 240955Z AUTO 03009G15KT 7SM DZ SCT010 BKN016 OVC034 11/10 A3001 RMK
                 AO2 P0001 =
2017-04-24 05:35 METAR KLKU 240935Z AUTO 04008KT 7SM RA SCT014 OVC026 11/10 A3001 RMK AO2 =
2017-04-24 05:15 METAR KLKU 240915Z AUTO 04005KT 7SM SCT009 BKN015 OVC028 11/10 A3001 RMK AO2 =
2017-04-24 04:55 METAR KLKU 240855Z AUTO 05007G15KT 7SM -DZ SCT014 BKN021 OVC030 11/10 A3001 RMK
                 AO2 =
2017-04-24 04:35 METAR KLKU 240835Z AUTO 05005KT 5SM RA SCT023 OVC035 12/10 A3002 RMK AO2 =
2017-04-24 04:15 METAR KLKU 240815Z AUTO 04007KT 10SM SCT015 BKN023 OVC041 12/10 A3002 RMK AO2 =
2017-04-24 03:55 METAR KLKU 240755Z AUTO 03008KT 10SM -DZ SCT017 BKN036 OVC048 12/11 A3002 RMK
                 AO2 P0002 =
2017-04-24 03:35 METAR KLKU 240735Z AUTO 06007KT 5SM DZ SCT012 BKN036 OVC047 12/11 A3002 RMK AO2
                 P0001 =
2017-04-24 03:15 METAR KLKU 240715Z AUTO 00000KT 7SM DZ SCT014 OVC036 12/12 A3002 RMK AO2 P0001 =
2017-04-24 02:55 METAR KLKU 240655Z AUTO 06003KT 7SM RA SCT014 BKN019 OVC047 12/11 A3002 RMK AO2
                 =
2017-04-24 02:35 METAR KLKU 240635Z AUTO 04003KT 10SM SCT015 OVC047 12/11 A3003 RMK AO2 =
2017-04-24 02:15 METAR KLKU 240615Z AUTO 04004KT 10SM SCT017 OVC060 12/11 A3004 RMK AO2 =
2017-04-24 01:55 METAR KLKU 240555Z AUTO 03003KT 10SM SCT019 SCT024 OVC060 12/11 A3005 RMK AO2 =
2017-04-24 01:35 METAR KLKU 240535Z AUTO 04005KT 10SM SCT019 SCT026 OVC070 12/11 A3005 RMK AO2 =
2017-04-24 01:15 METAR KLKU 240515Z AUTO 00000KT 10SM -DZ BKN021 OVC070 12/11 A3005 RMK AO2 =
2017-04-24 00:55 METAR KLKU 240455Z AUTO 04003KT 10SM OVC023 13/12 A3006 RMK AO2 =
2017-04-24 00:35 METAR KLKU 240435Z AUTO 00000KT 10SM -DZ OVC025 13/12 A3007 RMK AO2 =
2017-04-23 23:55 METAR KLKU 240355Z AUTO 00000KT 10SM DZ BKN025 OVC090 13/11 A3007 RMK AO2 P0001
                 =
2017-04-23 23:35 METAR KLKU 240335Z AUTO 36003KT 10SM RA OVC090 13/11 A3007 RMK AO2 =
2017-04-23 23:15 METAR KLKU 240315Z AUTO 02003KT 10SM -DZ SCT026 OVC100 12/11 A3007 RMK AO2 =
2017-04-23 22:55 METAR KLKU 240255Z AUTO 00000KT 10SM BKN046 OVC100 13/11 A3008 RMK AO2 =
2017-04-23 22:35 METAR KLKU 240235Z AUTO 00000KT 10SM -DZ OVC100 12/11 A3008 RMK AO2 =
2017-04-23 22:15 METAR KLKU 240215Z AUTO 00000KT 10SM OVC110 12/11 A3007 RMK AO2 =
2017-04-23 21:55 METAR KLKU 240155Z AUTO 06003KT 10SM SCT043 SCT065 BKN110 12/11 A3007 RMK AO2 =
2017-04-23 21:35 METAR KLKU 240135Z AUTO 00000KT 10SM DZ SCT065 BKN080 BKN100 12/11 A3007 RMK AO2
                 =
2017-04-23 21:15 METAR KLKU 240115Z AUTO 00000KT 10SM -RA SCT075 OVC100 12/11 A3008 RMK AO2 =
2017-04-23 20:55 METAR KLKU 240055Z AUTO 00000KT 10SM RA SCT075 OVC100 12/11 A3007 RMK AO2 P0001
                 =
2017-04-23 20:35 METAR KLKU 240035Z AUTO 00000KT 10SM RA SCT075 OVC100 13/11 A3007 RMK AO2 =
2017-04-23 20:15 METAR KLKU 240015Z AUTO 00000KT 10SM -DZ BKN100 13/11 A3007 RMK AO2 =
2017-04-23 19:55 METAR KLKU 232355Z AUTO 00000KT 10SM DZ SCT041 OVC090 13/11 A3007 RMK AO2 P0001
                 =
2017-04-23 19:35 METAR KLKU 232335Z AUTO 00000KT 10SM -RA SCT029 SCT040 BKN055 13/12 A3007 RMK
                 AO2 P0001 =
2017-04-23 19:15 METAR KLKU 232315Z AUTO 00000KT 10SM RA SCT029 BKN060 OVC085 13/11 A3007 RMK AO2
                 =
2017-04-23 18:55 METAR KLKU 232255Z AUTO 00000KT 10SM RA SCT038 BKN060 OVC085 13/11 A3007 RMK AO2
                 =
2017-04-23 18:35 METAR KLKU 232235Z AUTO 00000KT 10SM DZ SCT030 SCT046 BKN070 14/11 A3007 RMK AO2
                 =
2017-04-23 18:15 METAR KLKU 232215Z AUTO 00000KT 10SM -RA BKN030 15/10 A3006 RMK AO2 =
2017-04-23 17:55 METAR KLKU 232155Z AUTO 00000KT 10SM CLR 15/09 A3006 RMK AO2 =
2017-04-23 17:35 METAR KLKU 232135Z AUTO 08003KT 10SM CLR 15/09 A3006 RMK AO2 =
2017-04-23 17:15 METAR KLKU 232115Z AUTO 07003KT 10SM CLR 15/09 A3006 RMK AO2 =

Support USWX by starting your Amazon purchase here.